PWSweather.com
Personal Weather Stations
Station Observations
INORDPAS37
Bondues, BonduesFR 59910

BonduesBonduesFR 59910

Lat: 50.7, Lon: 3.09

Elevation: 102

Station Type: Netatmo

http://bondues.meteoamikuze.com

High Low Average
Temperature 71.8°F22.1°C 62.1°F16.7°C 65.5°F18.6°C
Dew Point 56.7°F13.7°C 48.2°F9.0°C 51.5°F10.8°C
Winds 11.2 mph 18.0 kmh Calm Calm 3.0 mph WSW4.8 kmh WSW
Wind Gusts 29.8 mph48.0 kmh 1.3 mph2.1 kmh 8.0 mph12.9 kmh
Humidity 70% 58% 65%
Pressure 29.87 in1011.5 mb 29.72 in1006.4 mb -
Precipitation 0.57 in14.5 mm - -
Hour Temp Dew Point Humidity Winds Wind Gusts Pressure Precip Precip Rate Daily Precip Total
12:06 AM 65.1°F18.4°C 48.2°F9.0°C 58% 0.7 mph SE1.1 kmh SE 1.8 mph2.9 kmh 29.79 in1008.8 mb 0.04 in1.0 mm 0.40 in10.2 mm 0.05 in1.3 mm
12:26 AM 64.8°F18.2°C 48.6°F9.2°C 60% 1.3 mph SE2.1 kmh SE 3.8 mph6.1 kmh 29.79 in1008.8 mb 0.02 in0.5 mm 0.00 in0.0 mm 0.05 in1.3 mm
12:46 AM 64.6°F18.1°C 48.9°F9.4°C 61% 1.3 mph SE2.1 kmh SE 2.5 mph4.0 kmh 29.78 in1008.5 mb 0.00 in0.0 mm 0.00 in0.0 mm 0.05 in1.3 mm
01:06 AM 64.4°F18.0°C 49.1°F9.5°C 62% 1.3 mph SE2.1 kmh SE 2.5 mph4.0 kmh 29.77 in1008.1 mb 0.00 in0.0 mm 0.00 in0.0 mm 0.05 in1.3 mm
01:27 AM 64.2°F17.9°C 49.3°F9.6°C 63% 1.3 mph SSE2.1 kmh SSE 3.1 mph5.0 kmh 29.77 in1008.1 mb 0.00 in0.0 mm 0.00 in0.0 mm 0.05 in1.3 mm
01:46 AM 63.9°F17.7°C 49.5°F9.7°C 64% 1.3 mph SE2.1 kmh SE 2.5 mph4.0 kmh 29.76 in1007.8 mb 0.00 in0.0 mm 0.00 in0.0 mm 0.05 in1.3 mm
02:07 AM 63.5°F17.5°C 49.1°F9.5°C 64% Calm Calm 1.3 mph2.1 kmh 29.75 in1007.5 mb 0.00 in0.0 mm 0.00 in0.0 mm 0.05 in1.3 mm
02:27 AM 63.0°F17.2°C 48.9°F9.4°C 65% 1.3 mph SE2.1 kmh SE 1.8 mph2.9 kmh 29.75 in1007.5 mb 0.00 in0.0 mm 0.00 in0.0 mm 0.05 in1.3 mm
02:47 AM 62.8°F17.1°C 48.7°F9.3°C 65% 0.7 mph SE1.1 kmh SE 1.3 mph2.1 kmh 29.73 in1006.8 mb 0.00 in0.0 mm 0.00 in0.0 mm 0.05 in1.3 mm
03:08 AM 62.8°F17.1°C 48.7°F9.3°C 65% 1.8 mph S2.9 kmh S 3.8 mph6.1 kmh 29.75 in1007.5 mb 0.00 in0.0 mm 0.00 in0.0 mm 0.05 in1.3 mm
03:27 AM 62.8°F17.1°C 48.7°F9.3°C 65% 1.3 mph S2.1 kmh S 3.1 mph5.0 kmh 29.74 in1007.1 mb 0.00 in0.0 mm 0.00 in0.0 mm 0.05 in1.3 mm
03:48 AM 62.8°F17.1°C 49.3°F9.6°C 66% 0.7 mph SSE1.1 kmh SSE 1.3 mph2.1 kmh 29.72 in1006.4 mb 0.00 in0.0 mm 0.00 in0.0 mm 0.05 in1.3 mm
04:04 AM 63.0°F17.2°C 49.3°F9.6°C 66% 1.3 mph S2.1 kmh S 3.1 mph5.0 kmh 29.73 in1006.8 mb 0.01 in0.3 mm 0.02 in0.5 mm 0.06 in1.5 mm
04:25 AM 63.1°F17.3°C 49.5°F9.7°C 66% 2.5 mph S4.0 kmh S 3.8 mph6.1 kmh 29.73 in1006.8 mb 0.05 in1.3 mm 0.10 in2.5 mm 0.09 in2.3 mm
04:44 AM 63.0°F17.2°C 49.8°F9.9°C 67% 1.8 mph SW2.9 kmh SW 4.9 mph7.9 kmh 29.73 in1006.8 mb 0.06 in1.5 mm 0.05 in1.3 mm 0.11 in2.8 mm
05:05 AM 63.0°F17.2°C 49.8°F9.9°C 67% 3.1 mph SW5.0 kmh SW 7.4 mph11.9 kmh 29.73 in1006.8 mb 0.10 in2.5 mm 0.05 in1.3 mm 0.16 in4.1 mm
05:24 AM 62.8°F17.1°C 49.6°F9.8°C 67% 4.9 mph SW7.9 kmh SW 9.4 mph15.1 kmh 29.74 in1007.1 mb 0.11 in2.8 mm 0.04 in1.0 mm 0.21 in5.3 mm
05:45 AM 62.6°F17.0°C 49.8°F9.9°C 68% 2.5 mph WSW4.0 kmh WSW 6.9 mph11.1 kmh 29.74 in1007.1 mb 0.12 in3.0 mm 0.03 in0.8 mm 0.23 in5.8 mm
06:05 AM 62.6°F17.0°C 49.8°F9.9°C 68% 1.8 mph W2.9 kmh W 4.3 mph6.9 kmh 29.74 in1007.1 mb 0.09 in2.3 mm 0.00 in0.0 mm 0.25 in6.4 mm
06:25 AM 62.2°F16.8°C 49.5°F9.7°C 68% 1.3 mph S2.1 kmh S 2.5 mph4.0 kmh 29.72 in1006.4 mb 0.04 in1.0 mm 0.00 in0.0 mm 0.25 in6.4 mm
06:45 AM 62.1°F16.7°C 49.3°F9.6°C 68% 1.3 mph SW2.1 kmh SW 2.5 mph4.0 kmh 29.73 in1006.8 mb 0.02 in0.5 mm 0.00 in0.0 mm 0.26 in6.6 mm
07:06 AM 62.2°F16.8°C 49.5°F9.7°C 68% 1.8 mph SW2.9 kmh SW 3.8 mph6.1 kmh 29.72 in1006.4 mb 0.02 in0.5 mm 0.00 in0.0 mm 0.28 in7.1 mm
07:26 AM 62.4°F16.9°C 50.0°F10.0°C 69% 1.8 mph SW2.9 kmh SW 4.9 mph7.9 kmh 29.73 in1006.8 mb 0.06 in1.5 mm 0.10 in2.5 mm 0.31 in7.9 mm
07:46 AM 62.8°F17.1°C 50.4°F10.2°C 69% 3.1 mph WSW5.0 kmh WSW 4.9 mph7.9 kmh 29.74 in1007.1 mb 0.05 in1.3 mm 0.00 in0.0 mm 0.31 in7.9 mm
08:06 AM 63.1°F17.3°C 50.7°F10.4°C 69% 3.1 mph WSW5.0 kmh WSW 4.9 mph7.9 kmh 29.74 in1007.1 mb 0.03 in0.8 mm 0.00 in0.0 mm 0.31 in7.9 mm
08:26 AM 63.5°F17.5°C 51.4°F10.8°C 70% 2.5 mph W4.0 kmh W 6.9 mph11.1 kmh 29.74 in1007.1 mb 0.00 in0.0 mm 0.00 in0.0 mm 0.31 in7.9 mm
08:36 AM 63.5°F17.5°C 51.4°F10.8°C 70% 3.8 mph WSW6.1 kmh WSW 7.4 mph11.9 kmh 29.74 in1007.1 mb 0.00 in0.0 mm 0.00 in0.0 mm 0.31 in7.9 mm
09:06 AM 64.2°F17.9°C 52.2°F11.2°C 70% 5.6 mph W9.0 kmh W 13.0 mph20.9 kmh 29.74 in1007.1 mb 0.00 in0.0 mm 0.00 in0.0 mm 0.31 in7.9 mm
09:26 AM 66.0°F18.9°C 54.0°F12.2°C 70% 8.7 mph W14.0 kmh W 17.4 mph28.0 kmh 29.74 in1007.1 mb 0.00 in0.0 mm 0.00 in0.0 mm 0.31 in7.9 mm
09:46 AM 66.6°F19.2°C 54.5°F12.5°C 70% 8.7 mph WNW14.0 kmh WNW 18.1 mph29.1 kmh 29.75 in1007.5 mb 0.00 in0.0 mm 0.00 in0.0 mm 0.31 in7.9 mm
10:06 AM 66.6°F19.2°C 54.0°F12.2°C 69% 4.9 mph W7.9 kmh W 12.5 mph20.1 kmh 29.75 in1007.5 mb 0.00 in0.0 mm 0.00 in0.0 mm 0.31 in7.9 mm
10:26 AM 66.0°F18.9°C 53.6°F12.0°C 69% 3.1 mph W5.0 kmh W 8.7 mph14.0 kmh 29.76 in1007.8 mb 0.00 in0.0 mm 0.00 in0.0 mm 0.31 in7.9 mm
10:46 AM 66.4°F19.1°C 53.4°F11.9°C 68% 1.8 mph W2.9 kmh W 5.6 mph9.0 kmh 29.76 in1007.8 mb 0.00 in0.0 mm 0.00 in0.0 mm 0.31 in7.9 mm
11:06 AM 67.1°F19.5°C 54.1°F12.3°C 68% 3.1 mph WSW5.0 kmh WSW 6.9 mph11.1 kmh 29.77 in1008.1 mb 0.00 in0.0 mm 0.00 in0.0 mm 0.31 in7.9 mm
11:27 AM 66.6°F19.2°C 53.2°F11.8°C 67% 3.1 mph WSW5.0 kmh WSW 7.4 mph11.9 kmh 29.76 in1007.8 mb 0.00 in0.0 mm 0.00 in0.0 mm 0.31 in7.9 mm
11:46 AM 66.0°F18.9°C 52.7°F11.5°C 67% 3.1 mph W5.0 kmh W 7.4 mph11.9 kmh 29.77 in1008.1 mb 0.00 in0.0 mm 0.00 in0.0 mm 0.31 in7.9 mm
12:08 PM 67.3°F19.6°C 54.0°F12.2°C 67% 3.1 mph W5.0 kmh W 9.4 mph15.1 kmh 29.76 in1007.8 mb 0.00 in0.0 mm 0.00 in0.0 mm 0.31 in7.9 mm
12:28 PM 68.9°F20.5°C 55.0°F12.8°C 66% 3.1 mph W5.0 kmh W 9.4 mph15.1 kmh 29.75 in1007.5 mb 0.00 in0.0 mm 0.00 in0.0 mm 0.31 in7.9 mm
12:48 PM 68.9°F20.5°C 54.7°F12.6°C 65% 3.8 mph WSW6.1 kmh WSW 10.5 mph16.9 kmh 29.75 in1007.5 mb 0.00 in0.0 mm 0.00 in0.0 mm 0.31 in7.9 mm
01:07 PM 68.5°F20.3°C 54.3°F12.4°C 65% 3.8 mph WSW6.1 kmh WSW 9.4 mph15.1 kmh 29.76 in1007.8 mb 0.01 in0.3 mm 0.02 in0.5 mm 0.32 in8.1 mm
01:27 PM 67.3°F19.6°C 54.0°F12.2°C 67% 7.4 mph W11.9 kmh W 28.6 mph46.0 kmh 29.76 in1007.8 mb 0.12 in3.0 mm 0.32 in8.1 mm 0.43 in10.9 mm
01:47 PM 68.0°F20.0°C 55.0°F12.8°C 68% 3.1 mph W5.0 kmh W 7.4 mph11.9 kmh 29.76 in1007.8 mb 0.12 in3.0 mm 0.00 in0.0 mm 0.43 in10.9 mm
02:01 PM 69.3°F20.7°C 55.8°F13.2°C 67% 8.7 mph WNW14.0 kmh WNW 15.0 mph24.1 kmh 29.76 in1007.8 mb 0.11 in2.8 mm 0.00 in0.0 mm 0.43 in10.9 mm
02:22 PM 71.1°F21.7°C 56.7°F13.7°C 65% 11.2 mph WNW18.0 kmh WNW 20.6 mph33.2 kmh 29.76 in1007.8 mb 0.00 in0.0 mm 0.00 in0.0 mm 0.43 in10.9 mm
02:42 PM 71.8°F22.1°C 56.5°F13.6°C 63% 9.4 mph NW15.1 kmh NW 20.6 mph33.2 kmh 29.76 in1007.8 mb 0.00 in0.0 mm 0.00 in0.0 mm 0.43 in10.9 mm
03:07 PM 70.0°F21.1°C 54.3°F12.4°C 62% 6.9 mph WNW11.1 kmh WNW 18.1 mph29.1 kmh 29.77 in1008.1 mb 0.07 in1.8 mm 0.12 in3.0 mm 0.50 in12.7 mm
03:28 PM 67.3°F19.6°C 53.1°F11.7°C 65% 8.1 mph W13.0 kmh W 13.6 mph21.9 kmh 29.76 in1007.8 mb 0.12 in3.0 mm 0.15 in3.8 mm 0.55 in14.0 mm
03:47 PM 66.4°F19.1°C 52.7°F11.5°C 66% 5.6 mph W9.0 kmh W 8.7 mph14.0 kmh 29.77 in1008.1 mb 0.15 in3.8 mm 0.08 in2.0 mm 0.57 in14.5 mm
04:07 PM 66.7°F19.3°C 53.4°F11.9°C 67% 4.3 mph W6.9 kmh W 8.7 mph14.0 kmh 29.77 in1008.1 mb 0.08 in2.0 mm 0.00 in0.0 mm 0.57 in14.5 mm
04:27 PM 67.5°F19.7°C 54.5°F12.5°C 68% 7.4 mph W11.9 kmh W 16.8 mph27.0 kmh 29.78 in1008.5 mb 0.02 in0.5 mm 0.00 in0.0 mm 0.57 in14.5 mm
04:44 PM 68.9°F20.5°C 55.0°F12.8°C 66% 5.6 mph W9.0 kmh W 29.8 mph48.0 kmh 29.78 in1008.5 mb 0.00 in0.0 mm 0.00 in0.0 mm 0.57 in14.5 mm
05:04 PM 70.2°F21.2°C 55.4°F13.0°C 64% 3.8 mph W6.1 kmh W 9.8 mph15.8 kmh 29.78 in1008.5 mb 0.00 in0.0 mm 0.00 in0.0 mm 0.57 in14.5 mm
05:24 PM 69.8°F21.0°C 54.7°F12.6°C 63% 3.8 mph W6.1 kmh W 8.7 mph14.0 kmh 29.78 in1008.5 mb 0.00 in0.0 mm 0.00 in0.0 mm 0.57 in14.5 mm
05:44 PM 70.2°F21.2°C 54.1°F12.3°C 61% 4.3 mph W6.9 kmh W 11.2 mph18.0 kmh 29.78 in1008.5 mb 0.00 in0.0 mm 0.00 in0.0 mm 0.57 in14.5 mm
06:04 PM 70.3°F21.3°C 53.8°F12.1°C 60% 4.3 mph W6.9 kmh W 8.1 mph13.0 kmh 29.79 in1008.8 mb 0.00 in0.0 mm 0.00 in0.0 mm 0.57 in14.5 mm
06:24 PM 68.7°F20.4°C 52.7°F11.5°C 61% 3.8 mph W6.1 kmh W 8.1 mph13.0 kmh 29.80 in1009.1 mb 0.00 in0.0 mm 0.00 in0.0 mm 0.57 in14.5 mm
06:44 PM 68.0°F20.0°C 52.2°F11.2°C 61% 3.1 mph W5.0 kmh W 6.9 mph11.1 kmh 29.81 in1009.5 mb 0.00 in0.0 mm 0.00 in0.0 mm 0.57 in14.5 mm
07:05 PM 67.5°F19.7°C 52.0°F11.1°C 62% 3.8 mph W6.1 kmh W 9.4 mph15.1 kmh 29.80 in1009.1 mb 0.00 in0.0 mm 0.00 in0.0 mm 0.57 in14.5 mm
07:24 PM 67.5°F19.7°C 52.0°F11.1°C 62% 3.8 mph W6.1 kmh W 9.8 mph15.8 kmh 29.82 in1009.8 mb 0.00 in0.0 mm 0.00 in0.0 mm 0.57 in14.5 mm
07:44 PM 66.7°F19.3°C 51.3°F10.7°C 62% 2.5 mph W4.0 kmh W 6.9 mph11.1 kmh 29.83 in1010.2 mb 0.00 in0.0 mm 0.00 in0.0 mm 0.57 in14.5 mm
08:04 PM 65.8°F18.8°C 50.9°F10.5°C 63% 3.1 mph W5.0 kmh W 9.4 mph15.1 kmh 29.83 in1010.2 mb 0.00 in0.0 mm 0.00 in0.0 mm 0.57 in14.5 mm
08:24 PM 65.1°F18.4°C 50.2°F10.1°C 63% 2.5 mph W4.0 kmh W 6.9 mph11.1 kmh 29.83 in1010.2 mb 0.00 in0.0 mm 0.00 in0.0 mm 0.57 in14.5 mm
08:45 PM 64.8°F18.2°C 50.2°F10.1°C 64% 3.1 mph W5.0 kmh W 10.5 mph16.9 kmh 29.84 in1010.5 mb 0.00 in0.0 mm 0.00 in0.0 mm 0.57 in14.5 mm
09:04 PM 64.4°F18.0°C 50.0°F10.0°C 64% 2.5 mph W4.0 kmh W 5.6 mph9.0 kmh 29.84 in1010.5 mb 0.00 in0.0 mm 0.00 in0.0 mm 0.57 in14.5 mm
09:25 PM 63.9°F17.7°C 49.5°F9.7°C 64% 2.5 mph W4.0 kmh W 6.9 mph11.1 kmh 29.85 in1010.8 mb 0.00 in0.0 mm 0.00 in0.0 mm 0.57 in14.5 mm
09:44 PM 63.5°F17.5°C 49.5°F9.7°C 65% 2.5 mph WSW4.0 kmh WSW 8.1 mph13.0 kmh 29.85 in1010.8 mb 0.00 in0.0 mm 0.00 in0.0 mm 0.57 in14.5 mm
10:05 PM 63.3°F17.4°C 49.3°F9.6°C 65% 2.5 mph WSW4.0 kmh WSW 4.9 mph7.9 kmh 29.85 in1010.8 mb 0.00 in0.0 mm 0.00 in0.0 mm 0.57 in14.5 mm
10:24 PM 63.1°F17.3°C 49.1°F9.5°C 65% 1.8 mph WSW2.9 kmh WSW 4.9 mph7.9 kmh 29.85 in1010.8 mb 0.00 in0.0 mm 0.00 in0.0 mm 0.57 in14.5 mm
10:45 PM 62.8°F17.1°C 48.7°F9.3°C 65% 1.8 mph WSW2.9 kmh WSW 4.3 mph6.9 kmh 29.86 in1011.2 mb 0.00 in0.0 mm 0.00 in0.0 mm 0.57 in14.5 mm
11:05 PM 62.6°F17.0°C 49.1°F9.5°C 66% 1.8 mph WSW2.9 kmh WSW 4.3 mph6.9 kmh 29.87 in1011.5 mb 0.00 in0.0 mm 0.00 in0.0 mm 0.46 in11.7 mm
11:25 PM 62.4°F16.9°C 48.9°F9.4°C 66% 1.8 mph WSW2.9 kmh WSW 3.8 mph6.1 kmh 29.86 in1011.2 mb 0.00 in0.0 mm 0.00 in0.0 mm 0.46 in11.7 mm
11:45 PM 62.1°F16.7°C 48.6°F9.2°C 66% 1.8 mph WSW2.9 kmh WSW 4.9 mph7.9 kmh 29.87 in1011.5 mb 0.00 in0.0 mm 0.00 in0.0 mm 0.46 in11.7 mm